createdAt,value
2022-09-13T00:01:34.260Z,1.27
2022-09-13T00:04:02.543Z,1.30
2022-09-13T00:06:30.575Z,1.05
2022-09-13T00:08:58.896Z,1.13
2022-09-13T00:11:30.385Z,1.52
2022-09-13T00:13:59.602Z,1.45
2022-09-13T00:16:30.582Z,1.45
2022-09-13T00:19:00.277Z,1.58
2022-09-13T00:21:29.717Z,1.70
2022-09-13T00:24:00.778Z,1.77
2022-09-13T00:26:30.013Z,1.83
2022-09-13T00:28:59.969Z,1.52
2022-09-13T00:34:00.947Z,1.80
2022-09-13T00:36:29.856Z,1.65
2022-09-13T00:38:59.492Z,1.70
2022-09-13T00:41:28.062Z,1.80
2022-09-13T00:44:03.239Z,1.90
2022-09-13T00:47:01.813Z,2.15
2022-09-13T00:49:50.539Z,2.25
2022-09-13T00:52:21.475Z,2.20
2022-09-13T00:54:57.048Z,1.70
2022-09-13T00:57:27.193Z,1.35
2022-09-13T01:00:12.309Z,2.00
2022-09-13T01:02:48.638Z,1.95
2022-09-13T01:05:19.732Z,2.00
2022-09-13T01:07:48.589Z,2.05
2022-09-13T01:10:17.068Z,1.70
2022-09-13T01:13:11.733Z,2.20
2022-09-13T01:15:40.466Z,1.95
2022-09-13T01:18:10.000Z,1.88
2022-09-13T01:20:46.965Z,1.92
2022-09-13T01:23:21.176Z,1.83
2022-09-13T01:25:58.179Z,2.10
2022-09-13T01:29:00.298Z,2.05
2022-09-13T01:32:15.513Z,2.42
2022-09-13T01:37:48.409Z,3.53
2022-09-13T01:40:51.935Z,3.08
2022-09-13T01:43:44.058Z,3.63
2022-09-13T01:46:54.666Z,3.25
2022-09-13T01:50:06.554Z,3.03
2022-09-13T01:52:55.180Z,2.90
2022-09-13T01:55:42.498Z,2.80
2022-09-13T01:58:22.226Z,2.92
2022-09-13T02:01:18.867Z,2.72
2022-09-13T02:03:58.082Z,2.33
2022-09-13T02:06:35.317Z,2.35
2022-09-13T02:09:12.463Z,2.30
2022-09-13T02:11:46.023Z,4.28
2022-09-13T02:14:24.057Z,4.80
2022-09-13T02:17:02.853Z,2.95
2022-09-13T02:19:54.361Z,5.70
2022-09-13T02:22:32.703Z,5.60
2022-09-13T02:25:17.089Z,4.15
2022-09-13T02:27:49.191Z,3.95
2022-09-13T02:30:18.284Z,4.20
2022-09-13T02:32:59.444Z,3.83
2022-09-13T02:35:32.209Z,5.45
2022-09-13T02:38:09.248Z,8.02
2022-09-13T02:40:44.184Z,7.30
2022-09-13T02:43:22.129Z,4.93
2022-09-13T02:46:13.519Z,14.57
2022-09-13T02:49:07.127Z,12.15
2022-09-13T02:51:48.336Z,5.47
2022-09-13T02:54:24.508Z,2.72
2022-09-13T02:56:57.350Z,1.63
2022-09-13T02:59:26.396Z,2.63
2022-09-13T03:02:08.270Z,2.20
2022-09-13T03:04:36.782Z,1.58
2022-09-13T03:07:08.600Z,2.88
2022-09-13T03:09:36.887Z,3.80
2022-09-13T03:12:35.822Z,2.65
2022-09-13T03:18:31.908Z,2.30
2022-09-13T03:21:29.007Z,2.30
2022-09-13T03:24:26.890Z,2.08
2022-09-13T03:27:25.636Z,2.05
2022-09-13T03:30:05.835Z,1.80
2022-09-13T03:33:03.316Z,1.85
2022-09-13T03:36:02.563Z,1.90
2022-09-13T03:39:14.374Z,1.67
2022-09-13T03:41:49.182Z,2.28
2022-09-13T03:44:22.206Z,1.88
2022-09-13T03:46:55.457Z,2.58
2022-09-13T03:49:26.456Z,1.85
2022-09-13T03:51:55.873Z,1.63
2022-09-13T03:54:27.915Z,1.63
2022-09-13T03:57:20.020Z,1.67
2022-09-13T03:59:54.649Z,1.80
2022-09-13T04:02:26.366Z,1.40
2022-09-13T04:04:54.511Z,2.50
2022-09-13T04:07:24.857Z,2.03
2022-09-13T04:09:53.096Z,1.90
2022-09-13T04:12:21.057Z,1.60
2022-09-13T04:14:49.612Z,2.03
2022-09-13T04:17:20.037Z,1.88
2022-09-13T04:19:48.053Z,3.22
2022-09-13T04:22:16.498Z,4.00
2022-09-13T04:24:45.324Z,2.40
2022-09-13T04:27:14.079Z,4.10
2022-09-13T04:29:42.100Z,2.15
2022-09-13T04:32:11.584Z,2.20
2022-09-13T04:34:39.795Z,2.22
2022-09-13T04:37:07.748Z,2.65
2022-09-13T04:39:37.016Z,2.38
2022-09-13T04:42:05.556Z,1.80
2022-09-13T04:44:34.275Z,1.85
2022-09-13T04:47:05.158Z,1.10
2022-09-13T04:49:33.117Z,0.95
2022-09-13T04:52:01.105Z,1.00
2022-09-13T04:54:29.217Z,2.22
2022-09-13T04:56:57.158Z,1.50
2022-09-13T04:59:25.159Z,2.22
2022-09-13T05:01:54.335Z,1.67
2022-09-13T05:04:22.268Z,1.52
2022-09-13T05:06:50.268Z,2.00
2022-09-13T05:09:19.396Z,2.33
2022-09-13T05:11:47.443Z,2.07
2022-09-13T05:14:15.852Z,1.15
2022-09-13T05:16:45.188Z,0.80
2022-09-13T05:19:13.975Z,0.65
2022-09-13T05:21:41.879Z,0.70
2022-09-13T05:24:10.359Z,0.55
2022-09-13T05:26:56.438Z,0.40
2022-09-13T05:29:25.428Z,0.60
2022-09-13T05:31:53.700Z,0.90
2022-09-13T05:34:21.702Z,0.88
2022-09-13T05:36:54.187Z,0.80
2022-09-13T05:39:33.838Z,1.00
2022-09-13T05:42:09.103Z,1.02
2022-09-13T05:44:37.063Z,0.77
2022-09-13T05:47:05.129Z,0.60
2022-09-13T05:49:33.310Z,0.32
2022-09-13T05:52:01.225Z,0.30
2022-09-13T05:54:29.342Z,0.20
2022-09-13T05:56:59.906Z,0.47
2022-09-13T05:59:27.883Z,0.30
2022-09-13T06:01:56.004Z,0.40
2022-09-13T06:04:25.274Z,0.30
2022-09-13T06:06:53.234Z,0.30
2022-09-13T06:09:21.155Z,0.30
2022-09-13T06:11:50.826Z,0.43
2022-09-13T06:14:19.265Z,0.40
2022-09-13T06:16:48.298Z,0.30
2022-09-13T06:19:16.575Z,0.53
2022-09-13T06:21:44.889Z,0.40
2022-09-13T06:24:12.887Z,0.50
2022-09-13T06:26:41.150Z,0.55
2022-09-13T06:29:13.687Z,0.57
2022-09-13T06:31:45.791Z,0.50
2022-09-13T06:34:19.916Z,0.30
2022-09-13T06:36:47.902Z,0.52
2022-09-13T06:39:15.745Z,0.50
2022-09-13T06:41:43.853Z,0.50
2022-09-13T06:44:11.839Z,0.47
2022-09-13T06:46:39.798Z,0.43
2022-09-13T06:49:10.418Z,0.40
2022-09-13T06:51:38.517Z,0.60
2022-09-13T06:54:06.726Z,0.47
2022-09-13T06:56:40.160Z,0.30
2022-09-13T06:59:11.102Z,0.40
2022-09-13T07:01:44.383Z,0.30
2022-09-13T07:04:17.884Z,0.40
2022-09-13T07:06:55.788Z,0.40
2022-09-13T07:09:23.743Z,0.65
2022-09-13T07:11:54.233Z,0.70
2022-09-13T07:14:27.747Z,1.10
2022-09-13T07:16:56.593Z,0.40
2022-09-13T07:19:29.664Z,0.35
2022-09-13T07:21:59.685Z,0.30
2022-09-13T07:24:27.803Z,0.50
2022-09-13T07:26:55.792Z,0.38
2022-09-13T07:29:29.697Z,0.30
2022-09-13T07:31:59.111Z,0.40
2022-09-13T07:34:28.074Z,0.20
2022-09-13T07:36:56.319Z,0.25
2022-09-13T07:39:24.856Z,0.30
2022-09-13T07:41:54.321Z,0.40
2022-09-13T07:44:25.303Z,0.47
2022-09-13T07:46:53.315Z,0.70
2022-09-13T07:49:21.464Z,0.90
2022-09-13T07:51:52.147Z,0.50
2022-09-13T07:54:21.181Z,0.50
2022-09-13T07:56:50.893Z,0.33
2022-09-13T07:59:20.297Z,0.40
2022-09-13T08:01:51.366Z,1.35
2022-09-13T08:04:22.583Z,0.60
2022-09-13T08:06:50.587Z,0.40
2022-09-13T08:09:18.726Z,0.50
2022-09-13T08:11:57.860Z,0.32
2022-09-13T08:14:25.791Z,0.40
2022-09-13T08:16:57.571Z,0.40
2022-09-13T08:19:25.877Z,0.40
2022-09-13T08:21:53.863Z,0.50
2022-09-13T08:24:22.984Z,1.63
2022-09-13T08:26:54.461Z,1.90
2022-09-13T08:29:22.421Z,1.40
2022-09-13T08:31:50.336Z,4.15
2022-09-13T08:34:19.653Z,2.20
2022-09-13T08:36:47.718Z,0.80
2022-09-13T08:39:15.773Z,1.88
2022-09-13T08:41:53.408Z,0.45
2022-09-13T08:44:30.741Z,0.50
2022-09-13T08:47:15.166Z,0.35
2022-09-13T08:49:50.131Z,0.43
2022-09-13T08:52:33.813Z,2.83
2022-09-13T08:55:16.335Z,0.43
2022-09-13T08:57:56.382Z,0.63
2022-09-13T09:00:42.022Z,0.90
2022-09-13T09:03:36.504Z,0.50
2022-09-13T09:06:04.518Z,0.40
2022-09-13T09:08:42.608Z,0.43
2022-09-13T09:11:32.093Z,0.40
2022-09-13T09:14:31.607Z,0.40
2022-09-13T09:17:08.589Z,0.50
2022-09-13T09:19:44.810Z,0.60
2022-09-13T09:22:19.031Z,0.43
2022-09-13T09:24:51.778Z,0.55
2022-09-13T09:27:20.847Z,0.52
2022-09-13T09:29:55.615Z,0.57
2022-09-13T09:32:38.604Z,0.50
2022-09-13T09:35:30.765Z,0.50
2022-09-13T09:38:26.590Z,0.60
2022-09-13T09:40:54.603Z,0.75
2022-09-13T09:43:53.714Z,1.25
2022-09-13T09:46:27.531Z,1.17
2022-09-13T09:49:03.060Z,0.98
2022-09-13T09:51:31.999Z,0.70
2022-09-13T09:54:05.808Z,0.57
2022-09-13T09:56:37.221Z,0.47
2022-09-13T09:59:05.199Z,0.60
2022-09-13T10:01:38.100Z,0.50
2022-09-13T10:04:20.820Z,0.50
2022-09-13T10:06:50.647Z,0.75
2022-09-13T10:11:55.503Z,1.08
2022-09-13T10:14:35.339Z,0.80
2022-09-13T10:17:22.989Z,0.73
2022-09-13T10:19:59.129Z,0.82
2022-09-13T10:22:28.545Z,0.70
2022-09-13T10:25:25.037Z,0.40
2022-09-13T10:27:57.817Z,0.40
2022-09-13T10:30:39.894Z,0.40
2022-09-13T10:33:23.210Z,0.50
2022-09-13T10:35:56.290Z,0.40
2022-09-13T10:38:34.900Z,0.60
2022-09-13T10:41:07.108Z,0.40
2022-09-13T10:43:36.371Z,0.47
2022-09-13T10:46:07.424Z,1.30
2022-09-13T10:48:58.930Z,118.68
2022-09-13T10:51:29.685Z,70.07
2022-09-13T10:54:15.920Z,17.70
2022-09-13T10:56:47.124Z,24.75
2022-09-13T10:59:24.196Z,40.53
2022-09-13T11:02:16.655Z,5.63
2022-09-13T11:05:23.295Z,0.75
2022-09-13T11:08:19.852Z,1.00
2022-09-13T11:11:23.079Z,1.25
2022-09-13T11:13:56.830Z,0.60
2022-09-13T11:17:06.249Z,0.90
2022-09-13T11:19:43.153Z,0.50
2022-09-13T11:22:28.200Z,0.43
2022-09-13T11:25:06.482Z,0.55
2022-09-13T11:27:48.889Z,2.22
2022-09-13T11:30:30.174Z,2.65
2022-09-13T11:33:34.679Z,18.60
2022-09-13T11:36:16.328Z,28.40
2022-09-13T11:39:29.177Z,17.55
2022-09-13T11:42:08.820Z,38.75
2022-09-13T11:45:03.895Z,3.92
2022-09-13T11:47:53.075Z,2.10
2022-09-13T11:50:27.624Z,2.28
2022-09-13T11:53:04.554Z,1.05
2022-09-13T11:55:42.461Z,1.30
2022-09-13T11:58:20.508Z,0.90
2022-09-13T12:00:57.378Z,0.50
2022-09-13T12:03:59.050Z,0.90
2022-09-13T12:06:41.955Z,0.70
2022-09-13T12:09:30.311Z,1.10
2022-09-13T12:12:13.064Z,1.52
2022-09-13T12:15:08.501Z,1.80
2022-09-13T12:17:51.865Z,1.27
2022-09-13T12:20:42.668Z,0.98
2022-09-13T12:23:48.834Z,2.08
2022-09-13T12:26:21.450Z,1.52
2022-09-13T12:28:59.104Z,4.18
2022-09-13T12:31:30.212Z,1.42
2022-09-13T12:33:59.057Z,4.43
2022-09-13T12:36:39.654Z,3.60
2022-09-13T12:39:28.658Z,9.88
2022-09-13T12:42:31.061Z,5.50
2022-09-13T12:45:21.687Z,6.25
2022-09-13T12:47:50.461Z,5.90
2022-09-13T12:50:43.342Z,4.45
2022-09-13T12:53:44.472Z,8.43
2022-09-13T12:59:26.438Z,15.88
2022-09-13T13:01:55.339Z,10.93
2022-09-13T13:04:28.188Z,13.40
2022-09-13T13:07:09.848Z,16.10
2022-09-13T13:09:51.552Z,17.25
2022-09-13T13:12:37.228Z,18.83
2022-09-13T13:15:29.147Z,19.08
2022-09-13T13:17:57.887Z,17.42
2022-09-13T13:21:06.605Z,16.85
2022-09-13T13:23:40.453Z,10.98
2022-09-13T13:27:00.557Z,13.35
2022-09-13T13:29:33.775Z,8.48
2022-09-13T13:32:03.496Z,6.68
2022-09-13T13:34:45.598Z,10.25
2022-09-13T13:37:16.384Z,15.55
2022-09-13T13:39:50.366Z,9.75
2022-09-13T13:42:33.817Z,8.77
2022-09-13T13:45:01.682Z,13.55
2022-09-13T13:47:33.504Z,33.38
2022-09-13T13:50:04.425Z,44.78
2022-09-13T13:52:41.338Z,10.60
2022-09-13T13:56:10.144Z,13.75
2022-09-13T13:58:51.654Z,25.48
2022-09-13T14:01:27.581Z,44.08
2022-09-13T14:04:12.218Z,36.15
2022-09-13T14:06:51.298Z,32.00
2022-09-13T14:09:47.838Z,21.95
2022-09-13T14:12:30.339Z,12.40
2022-09-13T14:15:08.265Z,11.82
2022-09-13T14:18:21.552Z,13.68
2022-09-13T14:21:05.279Z,15.35
2022-09-13T14:23:35.311Z,12.45
2022-09-13T14:26:05.813Z,13.25
2022-09-13T14:28:33.958Z,14.95
2022-09-13T14:31:03.013Z,14.23
2022-09-13T14:33:35.499Z,14.23
2022-09-13T14:36:20.548Z,25.95
2022-09-13T14:38:55.257Z,27.23
2022-09-13T14:41:32.312Z,30.88
2022-09-13T14:44:28.141Z,28.50
2022-09-13T14:47:08.694Z,28.85
2022-09-13T14:49:45.275Z,37.38
2022-09-13T14:52:29.686Z,36.08
2022-09-13T14:55:10.459Z,40.55
2022-09-13T14:57:44.980Z,40.75
2022-09-13T15:00:22.959Z,40.70
2022-09-13T15:02:57.455Z,36.17
2022-09-13T15:05:32.508Z,26.25
2022-09-13T15:08:00.593Z,18.58
2022-09-13T15:10:34.175Z,16.08
2022-09-13T15:13:09.475Z,16.45
2022-09-13T15:15:42.899Z,17.55
2022-09-13T15:18:24.417Z,16.58
2022-09-13T15:21:03.246Z,16.73
2022-09-13T15:23:35.990Z,15.75
2022-09-13T15:26:11.280Z,15.07
2022-09-13T15:28:42.425Z,14.25
2022-09-13T15:31:12.113Z,16.77
2022-09-13T15:33:40.117Z,23.55
2022-09-13T15:36:32.073Z,28.63
2022-09-13T15:39:18.037Z,38.53
2022-09-13T15:41:57.211Z,36.10
2022-09-13T15:44:26.276Z,29.88
2022-09-13T15:47:07.169Z,32.47
2022-09-13T15:49:35.165Z,25.50
2022-09-13T15:52:05.814Z,24.88
2022-09-13T15:54:42.418Z,21.60
2022-09-13T15:57:18.808Z,21.50
2022-09-13T15:59:46.850Z,24.73
2022-09-13T16:02:41.746Z,26.45
2022-09-13T16:05:09.837Z,28.58
2022-09-13T16:07:38.298Z,26.38
2022-09-13T16:10:14.699Z,26.95
2022-09-13T16:12:42.889Z,26.85
2022-09-13T16:15:13.343Z,26.92
2022-09-13T16:17:42.594Z,27.15
2022-09-13T16:20:16.083Z,25.40
2022-09-13T16:22:44.186Z,29.52
2022-09-13T16:25:17.105Z,29.10
2022-09-13T16:27:45.454Z,30.33
2022-09-13T16:30:20.562Z,35.45
2022-09-13T16:32:51.092Z,34.45
2022-09-13T16:35:19.441Z,25.27
2022-09-13T16:37:52.170Z,22.52
2022-09-13T16:40:21.221Z,19.63
2022-09-13T16:42:49.345Z,17.73
2022-09-13T16:45:17.608Z,17.35
2022-09-13T16:47:45.738Z,19.02
2022-09-13T16:50:14.547Z,21.13
2022-09-13T16:52:42.771Z,18.52
2022-09-13T16:55:13.645Z,16.70
2022-09-13T16:57:42.444Z,25.88
2022-09-13T17:00:16.388Z,20.97
2022-09-13T17:02:44.450Z,19.15
2022-09-13T17:05:13.366Z,19.08
2022-09-13T17:07:41.325Z,23.87
2022-09-13T17:10:10.417Z,25.35
2022-09-13T17:15:07.846Z,31.08
2022-09-13T17:17:37.324Z,23.30
2022-09-13T17:20:13.808Z,21.00
2022-09-13T17:22:42.013Z,15.77
2022-09-13T17:25:11.123Z,14.80
2022-09-13T17:27:39.123Z,16.00
2022-09-13T17:30:09.626Z,16.38
2022-09-13T17:32:37.618Z,15.02
2022-09-13T17:35:06.969Z,12.60
2022-09-13T17:37:35.045Z,14.80
2022-09-13T17:40:05.142Z,12.93
2022-09-13T17:42:33.120Z,14.52
2022-09-13T17:45:01.038Z,14.88
2022-09-13T17:47:29.072Z,13.73
2022-09-13T17:49:57.139Z,13.70
2022-09-13T17:52:25.178Z,13.10
2022-09-13T17:54:53.117Z,13.07
2022-09-13T17:57:21.388Z,14.65
2022-09-13T17:59:51.831Z,18.55
2022-09-13T18:02:19.833Z,20.15
2022-09-13T18:04:48.239Z,13.68
2022-09-13T18:07:16.255Z,13.23
2022-09-13T18:09:45.140Z,10.45
2022-09-13T18:12:13.384Z,11.47
2022-09-13T18:14:41.401Z,11.93
2022-09-13T18:17:13.679Z,12.43
2022-09-13T18:19:46.738Z,13.02
2022-09-13T18:22:15.819Z,13.02
2022-09-13T18:24:45.493Z,12.48
2022-09-13T18:27:15.893Z,12.70
2022-09-13T18:29:58.838Z,12.85
2022-09-13T18:32:27.683Z,12.77
2022-09-13T18:34:55.643Z,16.77
2022-09-13T18:37:23.606Z,15.20
2022-09-13T18:39:51.825Z,15.68
2022-09-13T18:42:19.809Z,15.52
2022-09-13T18:44:47.814Z,14.43
2022-09-13T18:47:16.911Z,14.80
2022-09-13T18:49:44.892Z,18.25
2022-09-13T18:52:12.951Z,15.77
2022-09-13T18:54:41.987Z,14.82
2022-09-13T18:57:10.017Z,10.35
2022-09-13T18:59:37.966Z,14.65
2022-09-13T19:02:07.132Z,16.67
2022-09-13T19:04:37.614Z,14.27
2022-09-13T19:07:07.646Z,12.38
2022-09-13T19:09:37.898Z,14.45
2022-09-13T19:12:06.161Z,15.18
2022-09-13T19:14:34.365Z,14.32
2022-09-13T19:17:04.500Z,14.13
2022-09-13T19:19:32.807Z,11.73
2022-09-13T19:22:00.806Z,9.85
2022-09-13T19:24:29.140Z,9.02
2022-09-13T19:26:57.300Z,10.77
2022-09-13T19:29:25.475Z,10.32
2022-09-13T19:31:59.407Z,11.65
2022-09-13T19:34:27.437Z,12.20
2022-09-13T19:36:58.504Z,11.93
2022-09-13T19:39:30.929Z,10.38
2022-09-13T19:42:01.102Z,9.48
2022-09-13T19:44:29.362Z,11.00
2022-09-13T19:47:36.298Z,10.70
2022-09-13T19:49:46.415Z,10.48
2022-09-13T19:52:14.505Z,11.70
2022-09-13T19:54:42.590Z,11.27
2022-09-13T19:57:10.606Z,9.93
2022-09-13T19:59:38.773Z,12.15
2022-09-13T20:02:07.577Z,12.13
2022-09-13T20:04:35.724Z,10.27
2022-09-13T20:07:06.669Z,10.82
2022-09-13T20:09:34.616Z,10.20
2022-09-13T20:12:02.908Z,11.23
2022-09-13T20:14:33.467Z,9.60
2022-09-13T20:17:03.078Z,10.18
2022-09-13T20:19:41.036Z,10.63
2022-09-13T20:24:38.884Z,9.50
2022-09-13T20:27:07.146Z,10.38
2022-09-13T20:29:36.642Z,9.93
2022-09-13T20:32:04.642Z,8.20
2022-09-13T20:34:32.609Z,9.93
2022-09-13T20:37:00.623Z,9.95
2022-09-13T20:39:28.516Z,10.60
2022-09-13T20:41:56.455Z,10.80
2022-09-13T20:44:24.582Z,10.20
2022-09-13T20:46:52.701Z,9.95
2022-09-13T20:49:20.778Z,10.68
2022-09-13T20:51:51.014Z,10.40
2022-09-13T20:54:19.007Z,9.32
2022-09-13T20:56:47.448Z,10.65
2022-09-13T20:59:15.525Z,9.43
2022-09-13T21:01:43.816Z,10.20
2022-09-13T21:04:11.821Z,10.05
2022-09-13T21:07:04.991Z,9.88
2022-09-13T21:09:33.114Z,10.02
2022-09-13T21:12:02.589Z,11.52
2022-09-13T21:14:33.493Z,9.05
2022-09-13T21:17:02.449Z,8.65
2022-09-13T21:19:30.385Z,9.50
2022-09-13T21:22:59.000Z,8.50
2022-09-13T21:25:27.443Z,8.60
2022-09-13T21:27:55.518Z,9.52
2022-09-13T21:30:26.144Z,9.73
2022-09-13T21:32:54.255Z,9.13
2022-09-13T21:35:22.239Z,8.25
2022-09-13T21:37:50.335Z,8.57
2022-09-13T21:40:18.313Z,9.15
2022-09-13T21:42:46.316Z,8.63
2022-09-13T21:45:14.534Z,8.60
2022-09-13T21:47:42.440Z,8.20
2022-09-13T21:50:10.701Z,8.55
2022-09-13T21:52:38.881Z,8.43
2022-09-13T21:55:07.033Z,7.95
2022-09-13T21:57:34.972Z,8.90
2022-09-13T22:00:06.058Z,7.80
2022-09-13T22:02:34.036Z,7.40
2022-09-13T22:05:02.019Z,7.40
2022-09-13T22:07:32.596Z,7.18
2022-09-13T22:10:00.520Z,6.80
2022-09-13T22:12:28.473Z,7.00
2022-09-13T22:14:56.548Z,6.82
2022-09-13T22:17:24.806Z,7.05
2022-09-13T22:19:52.836Z,7.07
2022-09-13T22:22:22.041Z,6.25
2022-09-13T22:24:50.331Z,6.63
2022-09-13T22:27:18.280Z,7.30
2022-09-13T22:29:47.410Z,6.38
2022-09-13T22:32:15.389Z,5.85
2022-09-13T22:34:43.417Z,5.35
2022-09-13T22:37:11.599Z,5.32
2022-09-13T22:39:39.533Z,6.18
2022-09-13T22:42:07.620Z,5.72
2022-09-13T22:44:38.631Z,5.65
2022-09-13T22:47:06.757Z,6.30
2022-09-13T22:49:34.690Z,5.35
2022-09-13T22:52:04.662Z,5.90
2022-09-13T22:54:32.580Z,5.28
2022-09-13T22:57:01.534Z,5.32
2022-09-13T22:59:29.689Z,4.88
2022-09-13T23:01:57.596Z,5.03
2022-09-13T23:04:25.510Z,5.50
2022-09-13T23:06:53.641Z,4.85
2022-09-13T23:09:21.611Z,5.90
2022-09-13T23:11:49.523Z,7.03
2022-09-13T23:14:22.102Z,6.18
2022-09-13T23:16:52.406Z,6.72
2022-09-13T23:19:23.818Z,6.70
2022-09-13T23:21:54.220Z,6.25
2022-09-13T23:24:23.084Z,5.55
2022-09-13T23:26:53.060Z,6.67
2022-09-13T23:29:21.347Z,6.18
2022-09-13T23:31:51.497Z,6.40
2022-09-13T23:34:22.141Z,6.43
2022-09-13T23:36:50.248Z,5.22
2022-09-13T23:39:20.692Z,5.57
2022-09-13T23:41:51.024Z,6.45
2022-09-13T23:44:19.326Z,6.22
2022-09-13T23:46:47.275Z,6.40
2022-09-13T23:49:15.422Z,5.45
2022-09-13T23:51:44.325Z,5.35
2022-09-13T23:54:14.429Z,5.93
2022-09-13T23:56:43.472Z,5.35
2022-09-13T23:59:14.031Z,5.07
